Time;durP1;ratioP1;P1;durP2;ratioP2;P2;SDS_P1;SDS_P2;PMS_P1;PMS_P2;Temp;Humidity;BMP_temperature;BMP_pressure;BME280_temperature;BME280_humidity;BME280_pressure;Samples;Min_cycle;Max_cycle;Signal;HPM_P1;HPM_P2
2023/03/30 00:00:45;;;;;;;18.50;5.00;;;;;;;10.79;87.79;98788.88;4980476;28;20077;-46
2023/03/30 00:03:12;;;;;;;25.48;5.43;;;;;;;10.76;88.17;98789.66;4986210;28;20078;-44
2023/03/30 00:05:41;;;;;;;20.90;3.90;;;;;;;10.74;88.45;98789.28;4976029;28;20050;-49
2023/03/30 00:08:08;;;;;;;18.73;7.65;;;;;;;10.73;88.62;98794.00;4986677;28;20059;-48
2023/03/30 00:10:37;;;;;;;22.45;4.55;;;;;;;10.74;88.83;98803.09;4957381;28;20051;-45
2023/03/30 00:13:04;;;;;;;20.05;4.28;;;;;;;10.71;88.99;98803.88;4985836;28;20050;-44
2023/03/30 00:15:31;;;;;;;24.50;4.40;;;;;;;10.68;89.29;98799.13;4985897;28;20093;-51
2023/03/30 00:17:58;;;;;;;19.25;3.70;;;;;;;10.67;89.51;98803.88;4988408;28;20094;-45
2023/03/30 00:20:24;;;;;;;20.38;4.53;;;;;;;10.66;89.68;98796.78;4987874;28;20046;-46
2023/03/30 00:22:51;;;;;;;12.82;4.50;;;;;;;10.69;89.99;98806.28;4989415;28;20093;-45
2023/03/30 00:25:18;;;;;;;18.77;4.45;;;;;;;10.68;90.30;98802.69;4989440;28;20055;-44
2023/03/30 00:27:45;;;;;;;22.17;5.38;;;;;;;10.67;90.28;98800.34;4988690;28;20129;-47
2023/03/30 00:30:14;;;;;;;23.10;4.93;;;;;;;10.67;90.70;98808.66;4988675;28;20042;-45
2023/03/30 00:32:42;;;;;;;31.50;5.97;;;;;;;10.62;90.95;98809.00;4988351;28;20042;-45
2023/03/30 00:35:11;;;;;;;21.88;6.00;;;;;;;10.60;91.17;98814.16;4989068;28;20046;-44
2023/03/30 00:37:38;;;;;;;26.38;5.78;;;;;;;10.58;91.36;98811.78;4989342;28;20104;-44
2023/03/30 00:40:08;;;;;;;23.17;7.07;;;;;;;10.56;91.71;98818.91;4992631;28;20531;-44
2023/03/30 00:42:35;;;;;;;26.98;6.10;;;;;;;10.55;91.91;98807.03;4993260;28;20050;-50
2023/03/30 00:45:27;;;;;;;15.65;4.18;;;;;;;10.54;92.17;98799.13;4991449;28;20057;-44
2023/03/30 00:48:00;;;;;;;18.08;3.40;;;;;;;10.51;92.17;98811.75;4993048;28;20057;-44
2023/03/30 00:50:39;;;;;;;14.40;3.38;;;;;;;10.52;92.61;98795.94;4992520;28;20105;-45
2023/03/30 00:53:11;;;;;;;19.80;4.65;;;;;;;10.52;92.43;98807.00;4992567;28;20050;-45
2023/03/30 00:55:39;;;;;;;12.60;4.03;;;;;;;10.48;92.99;98801.50;4992138;28;20508;-43
2023/03/30 00:58:08;;;;;;;24.38;6.32;;;;;;;10.48;92.98;98800.69;4993130;28;20053;-44
2023/03/30 01:00:38;;;;;;;18.30;3.85;;;;;;;10.48;93.07;98811.75;4992627;28;20049;-45
2023/03/30 01:03:26;;;;;;;17.35;4.10;;;;;;;10.46;93.31;98803.06;4992504;28;20046;-46
2023/03/30 01:05:55;;;;;;;22.40;3.90;;;;;;;10.49;93.59;98813.31;4982168;28;20070;-52
2023/03/30 01:08:26;;;;;;;19.88;4.55;;;;;;;10.46;93.48;98817.66;4992176;28;20048;-46
2023/03/30 01:10:52;;;;;;;14.95;4.88;;;;;;;10.45;93.85;98807.00;4992146;28;20686;-47
2023/03/30 01:13:19;;;;;;;16.42;4.03;;;;;;;10.46;94.15;98808.59;4990807;28;20130;-49
2023/03/30 01:16:25;;;;;;;16.67;4.40;;;;;;;10.43;94.21;98803.84;4993179;28;20038;-44
2023/03/30 01:19:20;;;;;;;17.10;4.25;;;;;;;10.40;94.48;98811.72;4990348;28;20073;-50
2023/03/30 01:22:15;;;;;;;19.00;4.68;;;;;;;10.40;94.58;98817.25;4992333;28;20040;-44
2023/03/30 01:25:02;;;;;;;17.92;4.78;;;;;;;10.40;94.58;98817.25;4991947;28;20057;-46
2023/03/30 01:27:56;;;;;;;16.80;4.35;;;;;;;10.40;94.73;98822.00;4991992;28;20046;-44
2023/03/30 01:30:29;;;;;;;18.95;5.95;;;;;;;10.42;94.78;98818.84;4974595;28;20056;-44
2023/03/30 01:33:03;;;;;;;24.35;4.93;;;;;;;10.40;94.83;98822.78;4997911;28;20070;-46
2023/03/30 01:35:38;;;;;;;14.73;3.22;;;;;;;10.36;95.20;98829.50;4989705;28;20057;-45
2023/03/30 01:38:17;;;;;;;23.45;4.40;;;;;;;10.33;95.30;98831.06;4989507;28;20042;-43
2023/03/30 01:40:58;;;;;;;16.50;4.38;;;;;;;10.33;95.39;98836.59;4990051;28;20481;-44
2023/03/30 01:43:35;;;;;;;21.30;4.18;;;;;;;10.29;95.48;98835.81;4990304;28;20064;-44
2023/03/30 01:46:18;;;;;;;17.15;4.57;;;;;;;10.28;95.42;98838.94;4980209;28;20042;-44
2023/03/30 01:49:11;;;;;;;18.48;5.65;;;;;;;10.25;95.59;98826.69;4992423;28;20107;-44
2023/03/30 01:52:18;;;;;;;17.90;4.75;;;;;;;10.21;95.90;98828.66;4993475;28;20046;-45
2023/03/30 01:54:59;;;;;;;25.30;4.90;;;;;;;10.19;95.78;98836.53;4990325;28;20377;-46
2023/03/30 01:57:44;;;;;;;16.98;4.38;;;;;;;10.18;95.87;98832.19;4988752;28;20050;-44
2023/03/30 02:00:16;;;;;;;26.40;6.07;;;;;;;10.14;96.03;98825.84;4988982;28;20392;-48
2023/03/30 02:02:55;;;;;;;;;;;;;;;10.11;96.35;98840.41;4982340;28;20060;-44
2023/03/30 02:05:26;;;;;;;20.55;3.53;;;;;;;10.06;95.84;98840.78;4989290;28;19922;-47
2023/03/30 02:07:59;;;;;;;16.77;3.15;;;;;;;10.05;95.82;98844.75;4988438;28;20544;-48
2023/03/30 02:10:32;;;;;;;20.35;5.72;;;;;;;10.02;96.00;98834.47;4990706;28;20042;-44
2023/03/30 02:12:59;;;;;;;15.55;3.00;;;;;;;10.00;96.21;98842.38;4971481;28;20052;-45
2023/03/30 02:15:32;;;;;;;21.30;4.53;;;;;;;9.96;96.37;98843.50;4989589;28;20046;-43
2023/03/30 02:17:59;;;;;;;14.85;3.17;;;;;;;9.91;96.34;98830.84;4991127;28;20050;-43
2023/03/30 02:20:27;;;;;;;19.48;4.43;;;;;;;9.90;96.26;98832.03;4971107;28;20085;-43
2023/03/30 02:22:56;;;;;;;19.65;3.78;;;;;;;9.87;96.32;98830.06;4989406;28;20420;-43
2023/03/30 02:25:23;;;;;;;15.43;2.97;;;;;;;9.85;96.28;98835.16;4990056;28;20050;-43
2023/03/30 02:27:50;;;;;;;17.67;2.53;;;;;;;9.82;96.26;98829.63;4989751;28;20039;-45
2023/03/30 02:30:17;;;;;;;16.20;3.05;;;;;;;9.80;96.36;98830.00;4988291;28;20396;-48
2023/03/30 02:32:55;;;;;;;12.35;2.15;;;;;;;9.75;96.37;98830.38;4990172;28;20051;-44
2023/03/30 02:35:33;;;;;;;12.98;2.25;;;;;;;9.71;96.41;98840.63;4990670;28;20072;-46
2023/03/30 02:38:21;;;;;;;18.15;3.20;;;;;;;9.68;96.58;98836.66;4983771;28;20513;-44
2023/03/30 02:41:02;;;;;;;24.00;4.13;;;;;;;9.63;96.34;98833.47;4987896;28;20054;-43
2023/03/30 02:43:53;;;;;;;18.13;2.65;;;;;;;9.60;96.47;98834.22;4989739;28;20043;-43
2023/03/30 02:46:45;;;;;;;14.82;3.97;;;;;;;9.56;96.53;98830.63;4985230;28;20070;-43
2023/03/30 02:49:17;;;;;;;12.00;2.53;;;;;;;9.52;96.56;98835.34;4989279;28;20084;-44
2023/03/30 02:52:02;;;;;;;10.70;1.80;;;;;;;9.49;96.56;98834.16;4989387;28;20060;-43
2023/03/30 02:54:58;;;;;;;13.68;2.53;;;;;;;9.47;96.44;98828.22;4981116;28;20523;-45
2023/03/30 02:57:39;;;;;;;13.68;2.08;;;;;;;9.44;96.41;98828.19;4986370;28;20154;-47
2023/03/30 03:03:03;;;;;;;8.68;2.25;;;;;;;9.37;96.57;98839.97;5030631;23;20072;-43
2023/03/30 03:05:31;;;;;;;11.68;2.40;;;;;;;9.35;96.57;98834.03;5007497;28;20046;-43
2023/03/30 03:07:58;;;;;;;9.82;2.10;;;;;;;9.33;96.52;98833.63;5009069;28;20081;-49
2023/03/30 03:10:25;;;;;;;11.23;2.40;;;;;;;9.32;96.44;98834.03;5007653;28;20046;-43
2023/03/30 03:12:52;;;;;;;10.52;2.38;;;;;;;9.29;96.48;98834.78;5008931;28;20048;-45
2023/03/30 03:15:19;;;;;;;15.88;2.33;;;;;;;9.26;96.44;98824.50;5008275;28;20041;-46
2023/03/30 03:17:45;;;;;;;12.90;1.88;;;;;;;9.24;96.39;98835.16;5006995;28;20053;-45
2023/03/30 03:20:12;;;;;;;7.90;2.00;;;;;;;9.19;96.62;98823.28;4991023;28;20469;-46
2023/03/30 03:22:39;;;;;;;16.08;3.50;;;;;;;9.16;96.61;98810.22;5008790;28;20050;-43
2023/03/30 03:25:07;;;;;;;13.98;2.50;;;;;;;9.14;96.73;98815.34;5007162;28;20419;-45
2023/03/30 03:27:34;;;;;;;12.15;2.70;;;;;;;9.11;96.72;98807.81;5009679;28;20058;-44
2023/03/30 03:30:01;;;;;;;14.10;2.15;;;;;;;9.09;96.83;98821.22;5008706;28;20049;-45
2023/03/30 03:32:27;;;;;;;26.65;2.90;;;;;;;9.07;96.58;98822.78;5010427;28;20081;-44
2023/03/30 03:34:54;;;;;;;16.50;3.28;;;;;;;9.04;96.85;98829.06;5007819;28;20499;-43
2023/03/30 03:37:21;;;;;;;15.27;3.33;;;;;;;9.02;96.76;98826.69;5008842;28;20050;-43
2023/03/30 03:39:47;;;;;;;18.35;3.22;;;;;;;8.98;96.92;98817.56;4990765;28;20081;-45
2023/03/30 03:42:14;;;;;;;12.88;2.40;;;;;;;8.95;96.98;98815.56;5009770;28;20085;-44
2023/03/30 03:44:41;;;;;;;21.98;3.67;;;;;;;8.93;96.98;98817.13;5006849;28;21316;-43
2023/03/30 03:47:07;;;;;;;10.25;3.13;;;;;;;8.92;97.18;98810.81;5008674;28;20062;-43
2023/03/30 03:49:34;;;;;;;14.95;3.65;;;;;;;8.91;97.06;98817.53;5015045;28;20076;-44
2023/03/30 03:52:02;;;;;;;15.10;4.65;;;;;;;8.89;96.97;98817.13;4991650;28;20495;-44
2023/03/30 03:54:28;;;;;;;14.20;2.65;;;;;;;8.87;97.17;98813.16;5007595;28;20567;-44
2023/03/30 03:56:55;;;;;;;16.13;2.22;;;;;;;8.85;97.23;98816.28;5008010;28;20472;-48
2023/03/30 03:59:22;;;;;;;11.23;3.20;;;;;;;8.84;97.39;98819.44;5007858;28;20046;-43
2023/03/30 04:01:49;;;;;;;15.82;2.38;;;;;;;8.84;97.20;98813.91;5006805;28;20404;-43
2023/03/30 04:04:16;;;;;;;14.13;2.63;;;;;;;8.84;97.39;98813.91;5007766;28;20046;-44
2023/03/30 04:06:43;;;;;;;12.43;2.22;;;;;;;8.83;97.34;98815.88;4991588;28;20551;-43
2023/03/30 04:09:10;;;;;;;18.85;4.38;;;;;;;8.81;97.24;98809.94;5007455;28;20041;-43
2023/03/30 04:11:38;;;;;;;15.45;2.45;;;;;;;8.79;97.46;98812.28;5007755;28;20050;-45
2023/03/30 04:14:04;;;;;;;16.85;3.17;;;;;;;8.78;97.55;98810.72;5013716;28;20124;-46
2023/03/30 04:16:31;;;;;;;17.40;2.65;;;;;;;8.78;97.58;98810.72;5013864;28;20569;-44
2023/03/30 04:18:58;;;;;;;10.57;2.22;;;;;;;8.78;97.55;98816.22;5014821;28;20044;-44
2023/03/30 04:21:28;;;;;;;12.82;2.53;;;;;;;8.77;97.48;98811.88;5014962;28;20488;-44
2023/03/30 04:23:55;;;;;;;12.82;2.92;;;;;;;8.74;97.44;98820.09;5023040;28;20053;-45
2023/03/30 04:26:22;;;;;;;12.40;2.55;;;;;;;8.72;97.63;98812.22;5013778;28;20065;-44
2023/03/30 04:28:52;;;;;;;14.45;2.60;;;;;;;8.72;97.91;98814.97;5015267;28;20160;-45
2023/03/30 04:31:21;;;;;;;14.65;2.85;;;;;;;8.71;97.74;98815.38;4992609;28;20038;-43
2023/03/30 04:33:52;;;;;;;16.17;2.40;;;;;;;8.72;97.85;98803.16;5014619;28;20050;-43
2023/03/30 04:36:19;;;;;;;15.43;4.68;;;;;;;8.70;97.70;98809.06;5013820;28;20034;-45
2023/03/30 04:38:59;;;;;;;5.88;1.83;;;;;;;8.67;97.70;98814.53;5016014;28;20042;-44
2023/03/30 04:41:28;;;;;;;18.45;2.53;;;;;;;8.58;97.66;98807.34;5011291;28;20136;-44
2023/03/30 04:43:55;;;;;;;17.50;3.38;;;;;;;8.55;97.92;98813.63;5013899;28;20054;-43
2023/03/30 04:46:22;;;;;;;14.77;2.38;;;;;;;8.52;97.95;98816.38;5012069;28;20407;-48
2023/03/30 04:48:48;;;;;;;13.63;2.58;;;;;;;8.49;98.10;98808.84;5015092;28;20072;-45
2023/03/30 04:51:15;;;;;;;16.92;3.13;;;;;;;8.45;98.19;98808.78;5011409;28;20566;-43
2023/03/30 04:53:42;;;;;;;12.10;2.00;;;;;;;8.42;98.33;98806.78;5014583;28;20058;-43
2023/03/30 04:56:10;;;;;;;11.07;3.08;;;;;;;8.40;98.25;98808.34;5015322;28;20042;-48
2023/03/30 04:58:37;;;;;;;13.73;2.88;;;;;;;8.38;98.56;98811.47;4997134;28;20506;-44
2023/03/30 05:01:03;;;;;;;13.35;2.88;;;;;;;8.36;98.56;98804.75;5014615;28;20169;-45
2023/03/30 05:03:31;;;;;;;13.82;2.20;;;;;;;8.35;98.64;98803.16;5014859;28;20041;-50
2023/03/30 05:05:57;;;;;;;9.38;2.20;;;;;;;8.33;98.69;98800.00;5014932;28;20062;-43
2023/03/30 05:08:24;;;;;;;13.68;3.22;;;;;;;8.30;98.59;98806.25;5011949;28;20205;-49
2023/03/30 05:10:51;;;;;;;16.10;2.80;;;;;;;8.27;98.61;98807.00;4994973;28;20419;-44
2023/03/30 05:13:18;;;;;;;16.40;2.92;;;;;;;8.25;98.64;98809.31;5014572;28;20060;-48
2023/03/30 05:15:51;;;;;;;16.50;2.83;;;;;;;8.21;98.68;98800.22;5013445;28;20156;-44
2023/03/30 05:18:17;;;;;;;18.58;5.30;;;;;;;8.21;98.86;98803.75;5012470;28;20079;-48
2023/03/30 05:20:45;;;;;;;12.52;2.42;;;;;;;8.20;99.03;98807.72;5013219;28;20061;-44
2023/03/30 05:23:11;;;;;;;7.20;1.83;;;;;;;8.19;98.93;98816.34;5014203;28;20073;-49
2023/03/30 05:25:42;;;;;;;18.30;2.25;;;;;;;8.12;98.86;98811.56;5010045;28;20050;-45
2023/03/30 05:28:09;;;;;;;23.30;3.03;;;;;;;8.06;99.08;98823.28;5011738;28;20124;-44
2023/03/30 05:30:36;;;;;;;13.63;2.78;;;;;;;8.02;99.18;98817.72;5012050;28;20423;-46
2023/03/30 05:33:04;;;;;;;16.77;4.00;;;;;;;7.99;99.06;98815.72;4998702;28;20041;-44
2023/03/30 05:35:30;;;;;;;13.52;3.33;;;;;;;7.95;99.17;98826.69;5010532;28;20640;-49
2023/03/30 05:37:57;;;;;;;13.25;2.40;;;;;;;7.96;99.24;98820.03;5010706;28;20088;-43
2023/03/30 05:40:24;;;;;;;6.53;1.90;;;;;;;7.95;99.28;98823.94;5007780;28;20056;-44
2023/03/30 05:42:51;;;;;;;18.45;3.38;;;;;;;7.96;99.13;98821.97;5009217;28;20131;-43
2023/03/30 05:45:17;;;;;;;12.63;2.58;;;;;;;7.96;99.29;98820.03;5007899;28;20125;-43
2023/03/30 05:47:44;;;;;;;18.45;2.58;;;;;;;8.02;99.31;98827.97;5010897;28;20045;-44
2023/03/30 05:50:11;;;;;;;25.15;4.50;;;;;;;8.03;98.96;98826.78;5010164;28;20042;-44
2023/03/30 05:52:38;;;;;;;13.68;2.60;;;;;;;8.01;98.90;98820.84;5009376;28;20054;-46
2023/03/30 05:55:05;;;;;;;14.43;4.60;;;;;;;7.96;98.70;98824.72;5010572;28;20046;-44
2023/03/30 05:57:32;;;;;;;21.80;3.33;;;;;;;7.93;98.86;98831.78;5009825;28;20399;-43
2023/03/30 05:59:59;;;;;;;13.38;3.47;;;;;;;7.90;99.02;98840.78;5005942;28;20072;-44
2023/03/30 06:02:26;;;;;;;9.02;3.03;;;;;;;7.92;99.31;98846.72;5008915;28;20057;-47
2023/03/30 06:04:53;;;;;;;17.95;7.28;;;;;;;7.92;99.30;98841.22;5008918;28;20434;-50
2023/03/30 06:07:19;;;;;;;30.70;11.55;;;;;;;7.90;99.24;98846.31;4990471;28;20050;-45
2023/03/30 06:09:46;;;;;;;20.90;9.77;;;;;;;7.88;99.08;98845.09;5009313;28;20564;-44
2023/03/30 06:12:13;;;;;;;25.08;7.47;;;;;;;7.86;99.33;98842.69;5009744;28;20448;-45
2023/03/30 06:14:40;;;;;;;24.15;10.02;;;;;;;7.85;99.46;98832.06;4990853;28;20054;-46
2023/03/30 06:17:07;;;;;;;29.30;10.27;;;;;;;7.83;99.33;98832.44;5010076;28;20136;-45
2023/03/30 06:19:34;;;;;;;23.02;7.40;;;;;;;7.86;99.57;98826.16;5009260;28;20046;-43
2023/03/30 06:22:01;;;;;;;35.55;11.82;;;;;;;7.91;99.45;98822.31;5010872;28;20553;-43
2023/03/30 06:24:27;;;;;;;24.60;7.97;;;;;;;7.92;99.35;98837.66;5010398;28;20050;-43
2023/03/30 06:26:54;;;;;;;12.10;3.40;;;;;;;7.95;99.38;98834.16;5010414;28;20045;-49
2023/03/30 06:29:22;;;;;;;13.20;3.22;;;;;;;7.98;99.50;98836.97;5010747;28;20720;-43
2023/03/30 06:31:50;;;;;;;18.77;3.45;;;;;;;8.03;99.39;98840.53;5010344;28;20077;-45
2023/03/30 06:34:16;;;;;;;15.52;3.42;;;;;;;8.07;99.46;98844.97;5009387;28;20046;-44
2023/03/30 06:36:45;;;;;;;13.82;3.10;;;;;;;8.11;99.49;98853.25;5009954;28;20233;-43
2023/03/30 06:39:13;;;;;;;19.52;5.38;;;;;;;8.17;99.62;98852.56;4993238;28;20790;-44
2023/03/30 06:41:41;;;;;;;21.85;2.70;;;;;;;8.26;99.78;98850.28;5010109;28;20499;-44
2023/03/30 06:44:09;;;;;;;16.63;2.85;;;;;;;8.37;99.78;98851.25;5010522;28;20053;-50
2023/03/30 06:46:36;;;;;;;15.65;2.83;;;;;;;8.50;99.89;98854.53;5010337;28;20050;-45
2023/03/30 06:49:02;;;;;;;20.67;3.72;;;;;;;8.63;99.95;98855.84;5010707;28;20042;-51
2023/03/30 06:51:29;;;;;;;8.48;1.92;;;;;;;8.77;99.59;98856.00;5010200;28;20052;-48
2023/03/30 06:53:56;;;;;;;5.57;1.75;;;;;;;8.88;99.50;98848.63;5010009;28;20049;-47
2023/03/30 06:56:23;;;;;;;12.70;2.50;;;;;;;8.98;99.49;98858.19;5010716;28;20487;-44
2023/03/30 06:58:50;;;;;;;18.38;2.35;;;;;;;9.09;99.76;98865.41;5009843;28;20046;-44
2023/03/30 07:01:17;;;;;;;12.63;3.13;;;;;;;9.19;99.42;98858.38;5008651;28;20058;-44
2023/03/30 07:03:44;;;;;;;21.15;3.05;;;;;;;9.25;99.43;98873.41;4991205;28;20083;-44
2023/03/30 07:06:11;;;;;;;12.20;1.67;;;;;;;9.26;99.34;98863.97;4994520;28;20435;-44
2023/03/30 07:08:39;;;;;;;10.75;3.00;;;;;;;9.29;99.58;98867.94;5006986;28;20046;-45
2023/03/30 07:11:06;;;;;;;11.50;2.88;;;;;;;9.29;99.70;98876.22;5005912;28;20526;-44
2023/03/30 07:13:33;;;;;;;11.60;2.45;;;;;;;9.30;99.75;98877.78;5018781;28;20045;-48
2023/03/30 07:16:00;;;;;;;14.25;2.05;;;;;;;9.30;99.98;98880.56;5009029;28;20146;-51
2023/03/30 07:18:26;;;;;;;11.32;2.03;;;;;;;9.32;99.73;98889.28;5000417;28;20050;-52
2023/03/30 07:20:57;;;;;;;5.38;1.58;;;;;;;9.36;100.00;98887.31;5003073;28;20053;-47
2023/03/30 07:23:23;;;;;;;9.77;1.50;;;;;;;9.40;100.00;98896.44;5003630;28;20037;-47
2023/03/30 07:25:51;;;;;;;13.82;2.03;;;;;;;9.48;100.00;98904.38;5008958;28;20056;-44
2023/03/30 07:28:18;;;;;;;10.15;0.95;;;;;;;9.60;100.00;98901.34;5009542;28;20045;-44
2023/03/30 07:30:45;;;;;;;7.85;2.63;;;;;;;9.73;100.00;98902.59;5009907;28;20092;-44
2023/03/30 07:33:13;;;;;;;8.05;1.30;;;;;;;9.82;99.73;98905.03;5009475;28;20080;-45
2023/03/30 07:35:45;;;;;;;3.47;1.23;;;;;;;9.86;99.50;98903.09;5008744;28;20077;-46
2023/03/30 07:38:13;;;;;;;7.13;1.98;;;;;;;9.91;99.61;98897.19;4991428;28;20499;-48
2023/03/30 07:40:40;;;;;;;9.43;1.48;;;;;;;9.96;99.80;98907.09;5007655;28;20136;-45
2023/03/30 07:43:07;;;;;;;14.70;3.30;;;;;;;9.96;99.67;98907.88;5008954;28;20418;-47
2023/03/30 07:45:36;;;;;;;4.68;1.00;;;;;;;10.01;99.70;98913.03;4992192;28;20042;-51
2023/03/30 07:48:03;;;;;;;7.47;1.48;;;;;;;10.03;99.77;98919.00;5008772;28;20390;-44
2023/03/30 07:50:30;;;;;;;11.80;2.17;;;;;;;10.07;99.67;98919.81;5008971;28;20132;-46
2023/03/30 07:52:57;;;;;;;7.80;1.55;;;;;;;10.12;99.41;98915.88;5008987;28;20555;-47
2023/03/30 07:55:24;;;;;;;5.70;1.52;;;;;;;10.16;99.35;98917.53;5008498;28;20136;-48
2023/03/30 07:57:51;;;;;;;3.30;1.00;;;;;;;10.19;99.17;98927.78;5008963;28;20038;-45
2023/03/30 08:00:20;;;;;;;5.22;1.20;;;;;;;10.24;99.13;98935.75;5008735;28;20056;-45
2023/03/30 08:02:47;;;;;;;5.85;1.05;;;;;;;10.25;99.12;98931.78;5007618;28;20423;-45
2023/03/30 08:05:16;;;;;;;9.27;2.13;;;;;;;10.29;99.09;98942.88;4989948;28;20049;-44
2023/03/30 08:07:44;;;;;;;3.47;1.20;;;;;;;10.34;99.23;98939.75;5005867;28;20076;-45
2023/03/30 08:10:11;;;;;;;3.85;1.80;;;;;;;10.38;99.04;98940.53;5007435;28;20056;-45
2023/03/30 08:12:39;;;;;;;7.65;1.40;;;;;;;10.42;98.90;98951.63;4992145;28;20101;-50
2023/03/30 08:15:06;;;;;;;1.80;0.45;;;;;;;10.44;98.79;98938.19;5005152;28;20037;-46
2023/03/30 08:17:33;;;;;;;12.75;2.72;;;;;;;10.46;98.58;98947.69;5006956;28;20387;-43
2023/03/30 08:20:00;;;;;;;8.00;1.77;;;;;;;10.48;98.59;98945.34;5005942;28;20092;-45
2023/03/30 08:22:27;;;;;;;5.95;1.25;;;;;;;10.50;98.37;98948.53;5008744;28;20112;-46
2023/03/30 08:24:54;;;;;;;8.32;1.92;;;;;;;10.53;98.32;98944.19;5008589;28;20505;-48
2023/03/30 08:27:20;;;;;;;8.55;1.08;;;;;;;10.59;98.33;98945.41;5008920;28;20077;-47
2023/03/30 08:29:49;;;;;;;5.75;1.45;;;;;;;10.66;98.19;98945.41;5008638;28;20574;-44
2023/03/30 08:32:16;;;;;;;5.50;1.08;;;;;;;10.77;98.08;98940.72;5008445;28;20050;-44
2023/03/30 08:34:43;;;;;;;5.25;1.13;;;;;;;10.83;97.78;98944.69;4990899;28;20053;-46
2023/03/30 08:37:11;;;;;;;11.88;1.17;;;;;;;10.85;97.87;98953.41;5009040;28;20149;-44
2023/03/30 08:39:38;;;;;;;13.07;3.03;;;;;;;10.92;98.27;98959.75;5008540;28;20046;-44
2023/03/30 08:42:14;;;;;;;6.10;1.40;;;;;;;11.10;98.35;98959.81;5008533;28;20057;-49
2023/03/30 08:44:45;;;;;;;8.18;1.33;;;;;;;11.28;98.73;98966.16;5008631;28;20133;-44
2023/03/30 08:47:17;;;;;;;10.30;2.58;;;;;;;11.50;98.97;98944.81;5008342;28;20120;-45
2023/03/30 08:49:54;;;;;;;4.57;1.02;;;;;;;11.63;98.57;98946.81;5008402;28;20061;-46
2023/03/30 08:52:24;;;;;;;2.53;0.85;;;;;;;11.72;98.40;98951.22;5008262;28;20507;-43
2023/03/30 08:54:51;;;;;;;5.85;1.23;;;;;;;11.80;99.24;98952.78;4991352;28;20092;-44
2023/03/30 08:57:40;;;;;;;5.97;0.85;;;;;;;11.91;99.61;98959.94;5002131;28;20506;-44
2023/03/30 09:00:20;;;;;;;10.82;2.25;;;;;;;12.05;99.83;98964.66;5009024;28;20066;-43
2023/03/30 09:02:51;;;;;;;6.35;1.77;;;;;;;12.30;100.00;98972.94;4996049;28;20546;-45
2023/03/30 09:05:35;;;;;;;9.80;1.70;;;;;;;12.76;100.00;98968.81;5009587;28;20042;-45
2023/03/30 09:08:23;;;;;;;15.70;2.08;;;;;;;13.18;100.00;98978.19;5009570;28;20443;-45
2023/03/30 09:10:59;;;;;;;8.65;1.60;;;;;;;13.77;98.92;98974.22;4999268;28;20108;-45
2023/03/30 09:13:33;;;;;;;10.60;3.28;;;;;;;14.28;97.25;98972.56;5008766;28;20057;-52
2023/03/30 09:16:04;;;;;;;7.40;1.58;;;;;;;14.31;94.40;98964.22;5003090;28;20042;-47
2023/03/30 09:18:34;;;;;;;10.90;1.80;;;;;;;14.17;93.58;98971.88;5008950;28;20076;-51
2023/03/30 09:21:04;;;;;;;6.97;1.98;;;;;;;14.13;93.77;98963.59;5008091;28;20044;-48
2023/03/30 09:23:34;;;;;;;7.50;1.85;;;;;;;14.62;92.84;98967.84;5000570;28;20054;-44
2023/03/30 09:26:21;;;;;;;14.63;2.92;;;;;;;15.98;89.79;98969.16;5009621;28;20040;-44
2023/03/30 09:28:59;;;;;;;8.88;2.50;;;;;;;17.06;85.55;98987.09;5021414;28;20041;-47
2023/03/30 09:31:30;;;;;;;7.30;1.73;;;;;;;17.53;82.73;98988.47;5009672;28;20050;-46
2023/03/30 09:34:24;;;;;;;8.65;1.50;;;;;;;17.18;82.71;98989.25;5008648;28;20053;-46
2023/03/30 09:37:11;;;;;;;7.70;1.75;;;;;;;16.37;82.25;98990.81;5009908;28;20042;-52
2023/03/30 09:39:38;;;;;;;14.85;2.97;;;;;;;16.27;81.39;98981.41;4998702;28;20399;-44
2023/03/30 09:42:16;;;;;;;12.98;1.55;;;;;;;16.12;80.23;98996.84;5011233;28;20058;-45
2023/03/30 09:45:05;;;;;;;10.25;1.88;;;;;;;16.53;80.20;98995.72;5008492;28;20050;-45
2023/03/30 09:47:35;;;;;;;15.38;2.25;;;;;;;16.59;76.78;98996.81;5008817;28;20436;-48
2023/03/30 09:50:15;;;;;;;10.10;2.30;;;;;;;16.15;77.53;98987.59;5002882;28;20112;-45
2023/03/30 09:53:04;;;;;;;9.35;1.85;;;;;;;16.94;76.16;98996.91;4999950;28;20069;-45
2023/03/30 09:55:33;;;;;;;12.38;2.65;;;;;;;17.26;74.52;99001.06;5008460;28;20041;-46
2023/03/30 09:58:16;;;;;;;18.02;2.33;;;;;;;17.28;72.96;98999.41;4985442;28;20484;-45
2023/03/30 10:00:44;;;;;;;7.55;2.50;;;;;;;17.02;72.30;99014.34;5008664;28;20053;-50
2023/03/30 10:03:22;;;;;;;12.88;2.15;;;;;;;17.06;72.51;99012.25;5011414;28;20144;-45
2023/03/30 10:06:07;;;;;;;10.75;2.50;;;;;;;17.50;72.20;99006.09;5003801;28;20142;-46
2023/03/30 10:08:50;;;;;;;11.15;3.03;;;;;;;17.85;69.95;99014.94;5009250;28;20112;-45
2023/03/30 10:11:31;;;;;;;9.43;2.20;;;;;;;17.01;69.60;99015.56;5009134;28;20581;-40
2023/03/30 10:13:58;;;;;;;9.45;1.67;;;;;;;16.25;70.77;99017.38;5006260;28;20042;-47
2023/03/30 10:16:31;;;;;;;8.35;1.90;;;;;;;15.83;71.34;99007.66;5004732;28;20064;-51
2023/03/30 10:19:00;;;;;;;7.55;2.05;;;;;;;15.99;71.28;99004.22;4990772;28;20125;-45
2023/03/30 10:21:36;;;;;;;5.15;1.52;;;;;;;15.81;70.90;99021.25;5008641;28;20052;-47
2023/03/30 10:24:17;;;;;;;14.10;2.67;;;;;;;16.07;71.23;99011.25;5010500;28;20046;-45
2023/03/30 10:26:46;;;;;;;7.20;1.75;;;;;;;17.15;68.77;99017.28;5007139;28;20038;-50
2023/03/30 10:29:21;;;;;;;8.82;1.70;;;;;;;17.45;66.78;99015.00;5009588;28;20104;-51
2023/03/30 10:32:07;;;;;;;8.25;1.67;;;;;;;16.94;67.62;99018.50;5009976;28;20542;-46
2023/03/30 10:34:42;;;;;;;8.00;1.65;;;;;;;16.23;68.48;98997.44;5002602;28;20048;-45
2023/03/30 10:37:14;;;;;;;20.38;4.03;;;;;;;15.57;69.44;99013.25;5017987;28;20099;-53
2023/03/30 10:39:43;;;;;;;13.88;2.28;;;;;;;15.13;70.91;99011.44;5000566;28;20046;-50
2023/03/30 10:42:15;;;;;;;7.10;1.77;;;;;;;14.89;71.58;99013.31;5009930;28;20365;-46
2023/03/30 10:44:54;;;;;;;8.88;2.08;;;;;;;14.62;72.04;99013.22;4982850;28;20046;-50
2023/03/30 10:47:33;;;;;;;11.00;2.15;;;;;;;14.31;72.32;99019.91;5005178;28;20168;-49
2023/03/30 10:50:18;;;;;;;8.38;1.35;;;;;;;13.98;73.14;99021.34;5003198;28;20519;-54
2023/03/30 10:53:15;;;;;;;10.70;1.90;;;;;;;13.89;74.17;99021.03;4999816;28;20381;-47
2023/03/30 10:56:03;;;;;;;8.40;1.60;;;;;;;14.87;71.65;99007.38;5002670;28;20125;-47
2023/03/30 10:58:39;;;;;;;7.78;1.50;;;;;;;15.33;70.22;99022.75;5005213;28;20115;-46
2023/03/30 11:01:16;;;;;;;6.78;1.48;;;;;;;15.52;70.10;99020.09;5006194;28;20045;-50
2023/03/30 11:03:50;;;;;;;9.75;3.50;;;;;;;15.53;69.85;99016.09;5006672;28;20081;-53
2023/03/30 11:06:23;;;;;;;12.57;1.75;;;;;;;15.54;70.20;99012.09;5008568;28;20173;-50
2023/03/30 11:08:54;;;;;;;8.02;1.77;;;;;;;15.51;70.77;99017.72;5009752;28;20049;-47
2023/03/30 11:11:33;;;;;;;11.90;2.67;;;;;;;15.46;71.13;99012.63;5005122;28;20034;-49
2023/03/30 11:14:06;;;;;;;14.73;2.83;;;;;;;15.43;71.66;99013.44;4999899;28;20050;-48
2023/03/30 11:16:46;;;;;;;6.80;1.65;;;;;;;15.59;71.67;99003.28;5005177;28;20056;-47
2023/03/30 11:19:27;;;;;;;9.13;1.60;;;;;;;15.62;71.88;99004.44;5002254;28;20046;-47
2023/03/30 11:22:15;;;;;;;10.00;1.55;;;;;;;15.49;72.38;99015.34;4997247;28;20115;-46
2023/03/30 11:24:45;;;;;;;5.28;1.27;;;;;;;15.39;72.53;98993.16;4995048;28;20092;-50
2023/03/30 11:27:19;;;;;;;6.90;2.47;;;;;;;15.58;72.43;98986.94;5009630;28;20140;-47
2023/03/30 11:29:55;;;;;;;10.48;1.98;;;;;;;15.77;72.55;99008.56;5003730;28;20411;-47
2023/03/30 11:32:43;;;;;;;9.10;2.35;;;;;;;15.82;72.57;98991.34;5006262;28;20427;-42
2023/03/30 11:35:17;;;;;;;9.38;1.38;;;;;;;15.84;72.30;98997.28;5004532;28;20558;-46
2023/03/30 11:37:56;;;;;;;8.88;1.67;;;;;;;15.97;72.09;99003.84;5009283;28;20125;-46
2023/03/30 11:40:31;;;;;;;6.07;1.20;;;;;;;15.94;71.96;98996.31;5007856;28;20038;-45
2023/03/30 11:42:58;;;;;;;6.20;1.00;;;;;;;15.80;71.95;98996.56;4999234;28;20509;-47
2023/03/30 11:45:43;;;;;;;7.60;1.23;;;;;;;15.63;71.74;99004.00;4988454;28;20057;-46
2023/03/30 11:48:13;;;;;;;5.90;1.23;;;;;;;15.51;71.32;99001.00;5008958;28;20125;-46
2023/03/30 11:51:03;;;;;;;12.57;1.58;;;;;;;15.44;71.20;98995.47;5005124;28;20505;-51
2023/03/30 11:54:04;;;;;;;8.70;1.70;;;;;;;15.37;70.82;98984.44;5000491;28;20042;-52
2023/03/30 11:56:51;;;;;;;4.53;1.27;;;;;;;15.37;70.58;98984.44;4990949;28;20046;-47